sensor_id;sensor_type;location;lat;lon;timestamp;pressure;altitude;pressure_sealevel;temperature;humidity
8398;BME280;4236;54.504;9.588;2023-10-13T00:01:10;101155.34;;;8.49;100.00
8398;BME280;4236;54.504;9.588;2023-10-13T00:03:40;101149.69;;;8.60;100.00
8398;BME280;4236;54.504;9.588;2023-10-13T00:06:07;101145.78;;;8.70;100.00
8398;BME280;4236;54.504;9.588;2023-10-13T00:08:35;101143.75;;;8.80;100.00
8398;BME280;4236;54.504;9.588;2023-10-13T00:11:06;101150.69;;;8.89;100.00
8398;BME280;4236;54.504;9.588;2023-10-13T00:13:36;101155.59;;;9.01;100.00
8398;BME280;4236;54.504;9.588;2023-10-13T00:16:09;101149.00;;;9.11;100.00
8398;BME280;4236;54.504;9.588;2023-10-13T00:18:43;101146.31;;;9.19;100.00
8398;BME280;4236;54.504;9.588;2023-10-13T00:21:11;101146.41;;;9.26;100.00
8398;BME280;4236;54.504;9.588;2023-10-13T00:23:46;101141.88;;;9.34;100.00
8398;BME280;4236;54.504;9.588;2023-10-13T00:26:22;101130.69;;;9.39;100.00
8398;BME280;4236;54.504;9.588;2023-10-13T00:28:54;101137.78;;;9.47;100.00
8398;BME280;4236;54.504;9.588;2023-10-13T00:31:36;101129.06;;;9.53;100.00
8398;BME280;4236;54.504;9.588;2023-10-13T00:34:05;101121.38;;;9.58;100.00
8398;BME280;4236;54.504;9.588;2023-10-13T00:36:38;101117.31;;;9.62;100.00
8398;BME280;4236;54.504;9.588;2023-10-13T00:39:15;101117.63;;;9.67;100.00
8398;BME280;4236;54.504;9.588;2023-10-13T00:41:46;101115.22;;;9.72;100.00
8398;BME280;4236;54.504;9.588;2023-10-13T00:44:24;101118.16;;;9.77;100.00
8398;BME280;4236;54.504;9.588;2023-10-13T00:46:55;101103.31;;;9.82;100.00
8398;BME280;4236;54.504;9.588;2023-10-13T00:49:23;101102.13;;;9.85;100.00
8398;BME280;4236;54.504;9.588;2023-10-13T00:51:51;101105.06;;;9.90;100.00
8398;BME280;4236;54.504;9.588;2023-10-13T00:54:19;101095.84;;;9.92;100.00
8398;BME280;4236;54.504;9.588;2023-10-13T00:56:55;101099.00;;;9.96;100.00
8398;BME280;4236;54.504;9.588;2023-10-13T00:59:31;101084.47;;;9.98;100.00
8398;BME280;4236;54.504;9.588;2023-10-13T01:02:03;101082.28;;;10.02;100.00
8398;BME280;4236;54.504;9.588;2023-10-13T01:04:52;101072.25;;;10.04;100.00
8398;BME280;4236;54.504;9.588;2023-10-13T01:07:21;101068.00;;;10.10;100.00
8398;BME280;4236;54.504;9.588;2023-10-13T01:09:51;101071.00;;;10.15;100.00
8398;BME280;4236;54.504;9.588;2023-10-13T01:12:19;101059.97;;;10.18;100.00
8398;BME280;4236;54.504;9.588;2023-10-13T01:14:50;101055.91;;;10.22;100.00
8398;BME280;4236;54.504;9.588;2023-10-13T01:17:16;101054.72;;;10.24;100.00
8398;BME280;4236;54.504;9.588;2023-10-13T01:19:45;101061.13;;;10.30;100.00
8398;BME280;4236;54.504;9.588;2023-10-13T01:22:12;101058.94;;;10.33;100.00
8398;BME280;4236;54.504;9.588;2023-10-13T01:24:41;101057.34;;;10.39;100.00
8398;BME280;4236;54.504;9.588;2023-10-13T01:27:08;101056.16;;;10.41;100.00
8398;BME280;4236;54.504;9.588;2023-10-13T01:29:44;101045.28;;;10.43;100.00
8398;BME280;4236;54.504;9.588;2023-10-13T01:32:14;101041.03;;;10.48;100.00
8398;BME280;4236;54.504;9.588;2023-10-13T01:34:42;101030.81;;;10.52;100.00
8398;BME280;4236;54.504;9.588;2023-10-13T01:37:12;101033.94;;;10.55;100.00
8398;BME280;4236;54.504;9.588;2023-10-13T01:39:43;101034.19;;;10.61;100.00
8398;BME280;4236;54.504;9.588;2023-10-13T01:42:14;101023.78;;;10.66;100.00
8398;BME280;4236;54.504;9.588;2023-10-13T01:44:46;101020.75;;;10.69;100.00
8398;BME280;4236;54.504;9.588;2023-10-13T01:47:14;101010.50;;;10.72;100.00
8398;BME280;4236;54.504;9.588;2023-10-13T01:49:42;101004.78;;;10.75;100.00
8398;BME280;4236;54.504;9.588;2023-10-13T01:52:14;101011.59;;;10.78;100.00
8398;BME280;4236;54.504;9.588;2023-10-13T01:54:43;100989.88;;;10.81;100.00
8398;BME280;4236;54.504;9.588;2023-10-13T01:57:12;100995.63;;;10.84;100.00
8398;BME280;4236;54.504;9.588;2023-10-13T01:59:40;100983.78;;;10.87;100.00
8398;BME280;4236;54.504;9.588;2023-10-13T02:02:11;100970.84;;;10.90;100.00
8398;BME280;4236;54.504;9.588;2023-10-13T02:04:39;100969.66;;;10.93;100.00
8398;BME280;4236;54.504;9.588;2023-10-13T02:07:15;100966.63;;;10.96;100.00
8398;BME280;4236;54.504;9.588;2023-10-13T02:09:44;100964.56;;;10.98;100.00
8398;BME280;4236;54.504;9.588;2023-10-13T02:12:11;100953.88;;;10.98;100.00
8398;BME280;4236;54.504;9.588;2023-10-13T02:14:41;100944.03;;;10.98;100.00
8398;BME280;4236;54.504;9.588;2023-10-13T02:17:08;100943.84;;;11.00;100.00
8398;BME280;4236;54.504;9.588;2023-10-13T02:19:40;100941.16;;;11.00;100.00
8398;BME280;4236;54.504;9.588;2023-10-13T02:22:11;100933.16;;;11.00;100.00
8398;BME280;4236;54.504;9.588;2023-10-13T02:24:52;100927.81;;;11.00;100.00
8398;BME280;4236;54.504;9.588;2023-10-13T02:27:19;100922.50;;;11.00;100.00
8398;BME280;4236;54.504;9.588;2023-10-13T02:29:49;100929.50;;;11.01;100.00
8398;BME280;4236;54.504;9.588;2023-10-13T02:32:16;100919.81;;;11.00;100.00
8398;BME280;4236;54.504;9.588;2023-10-13T02:34:46;100910.38;;;10.97;100.00
8398;BME280;4236;54.504;9.588;2023-10-13T02:37:13;100908.72;;;10.96;100.00
8398;BME280;4236;54.504;9.588;2023-10-13T02:39:40;100906.03;;;10.96;100.00
8398;BME280;4236;54.504;9.588;2023-10-13T02:42:09;100909.53;;;10.97;100.00
8398;BME280;4236;54.504;9.588;2023-10-13T02:44:49;100904.41;;;10.95;100.00
8398;BME280;4236;54.504;9.588;2023-10-13T02:47:16;100894.56;;;10.96;100.00
8398;BME280;4236;54.504;9.588;2023-10-13T02:49:46;100883.69;;;10.97;100.00
8398;BME280;4236;54.504;9.588;2023-10-13T02:52:14;100880.19;;;10.97;100.00
8398;BME280;4236;54.504;9.588;2023-10-13T02:54:42;100870.34;;;10.97;100.00
8398;BME280;4236;54.504;9.588;2023-10-13T02:57:15;100868.50;;;10.98;100.00
8398;BME280;4236;54.504;9.588;2023-10-13T02:59:45;100862.94;;;10.99;100.00
8398;BME280;4236;54.504;9.588;2023-10-13T03:02:14;100864.63;;;11.00;100.00
8398;BME280;4236;54.504;9.588;2023-10-13T03:04:50;100864.44;;;11.02;100.00
8398;BME280;4236;54.504;9.588;2023-10-13T03:07:17;100856.84;;;11.05;100.00
8398;BME280;4236;54.504;9.588;2023-10-13T03:09:50;100853.97;;;11.07;100.00
8398;BME280;4236;54.504;9.588;2023-10-13T03:12:19;100846.59;;;11.09;100.00
8398;BME280;4236;54.504;9.588;2023-10-13T03:14:48;100846.59;;;11.09;100.00
8398;BME280;4236;54.504;9.588;2023-10-13T03:17:14;100843.94;;;11.09;100.00
8398;BME280;4236;54.504;9.588;2023-10-13T03:19:44;100851.94;;;11.09;100.00
8398;BME280;4236;54.504;9.588;2023-10-13T03:22:17;100836.34;;;11.13;100.00
8398;BME280;4236;54.504;9.588;2023-10-13T03:24:45;100840.03;;;11.11;100.00
8398;BME280;4236;54.504;9.588;2023-10-13T03:27:13;100837.78;;;11.15;100.00
8398;BME280;4236;54.504;9.588;2023-10-13T03:29:45;100824.28;;;11.17;100.00
8398;BME280;4236;54.504;9.588;2023-10-13T03:32:15;100823.66;;;11.21;100.00
8398;BME280;4236;54.504;9.588;2023-10-13T03:34:44;100812.81;;;11.23;100.00
8398;BME280;4236;54.504;9.588;2023-10-13T03:37:31;100806.22;;;11.25;100.00
8398;BME280;4236;54.504;9.588;2023-10-13T03:40:06;100807.69;;;11.28;100.00
8398;BME280;4236;54.504;9.588;2023-10-13T03:42:42;100794.16;;;11.36;100.00
8398;BME280;4236;54.504;9.588;2023-10-13T03:45:17;100789.63;;;11.36;100.00
8398;BME280;4236;54.504;9.588;2023-10-13T03:47:45;100781.44;;;11.38;100.00
8398;BME280;4236;54.504;9.588;2023-10-13T03:50:13;100773.03;;;11.41;100.00
8398;BME280;4236;54.504;9.588;2023-10-13T03:52:48;100758.44;;;11.43;100.00
8398;BME280;4236;54.504;9.588;2023-10-13T03:55:16;100749.19;;;11.46;100.00
8398;BME280;4236;54.504;9.588;2023-10-13T03:57:44;100733.59;;;11.49;100.00
8398;BME280;4236;54.504;9.588;2023-10-13T04:00:18;100753.53;;;11.53;100.00
8398;BME280;4236;54.504;9.588;2023-10-13T04:02:54;100744.91;;;11.58;100.00
8398;BME280;4236;54.504;9.588;2023-10-13T04:05:36;100749.63;;;11.62;100.00
8398;BME280;4236;54.504;9.588;2023-10-13T04:08:07;100742.25;;;11.64;100.00
8398;BME280;4236;54.504;9.588;2023-10-13T04:10:54;100728.91;;;11.71;100.00
8398;BME280;4236;54.504;9.588;2023-10-13T04:13:51;100723.16;;;11.74;100.00
8398;BME280;4236;54.504;9.588;2023-10-13T04:16:46;100721.97;;;11.77;100.00
8398;BME280;4236;54.504;9.588;2023-10-13T04:19:21;100710.88;;;11.80;100.00
8398;BME280;4236;54.504;9.588;2023-10-13T04:21:53;100710.44;;;11.83;100.00
8398;BME280;4236;54.504;9.588;2023-10-13T04:24:27;100698.72;;;11.84;100.00
8398;BME280;4236;54.504;9.588;2023-10-13T04:27:26;100694.81;;;11.86;100.00
8398;BME280;4236;54.504;9.588;2023-10-13T04:30:07;100689.88;;;11.90;100.00
8398;BME280;4236;54.504;9.588;2023-10-13T04:32:47;100685.97;;;11.92;100.00
8398;BME280;4236;54.504;9.588;2023-10-13T04:35:32;100671.38;;;11.95;100.00
8398;BME280;4236;54.504;9.588;2023-10-13T04:38:13;100676.53;;;11.96;100.00
8398;BME280;4236;54.504;9.588;2023-10-13T04:40:46;100663.78;;;11.98;100.00
8398;BME280;4236;54.504;9.588;2023-10-13T04:43:27;100660.06;;;11.99;100.00
8398;BME280;4236;54.504;9.588;2023-10-13T04:46:20;100651.66;;;12.02;100.00
8398;BME280;4236;54.504;9.588;2023-10-13T04:49:03;100644.22;;;12.04;100.00
8398;BME280;4236;54.504;9.588;2023-10-13T04:51:37;100629.63;;;12.07;100.00
8398;BME280;4236;54.504;9.588;2023-10-13T04:54:25;100616.25;;;12.07;100.00
8398;BME280;4236;54.504;9.588;2023-10-13T04:56:52;100606.81;;;12.11;100.00
8398;BME280;4236;54.504;9.588;2023-10-13T04:59:40;100600.44;;;12.12;100.00
8398;BME280;4236;54.504;9.588;2023-10-13T05:02:22;100611.72;;;12.14;100.00
8398;BME280;4236;54.504;9.588;2023-10-13T05:05:10;100603.28;;;12.24;100.00
8398;BME280;4236;54.504;9.588;2023-10-13T05:08:11;100598.13;;;12.22;100.00
8398;BME280;4236;54.504;9.588;2023-10-13T05:10:56;100581.22;;;12.35;100.00
8398;BME280;4236;54.504;9.588;2023-10-13T05:13:41;100570.31;;;12.36;100.00
8398;BME280;4236;54.504;9.588;2023-10-13T05:16:26;100566.41;;;12.39;100.00
8398;BME280;4236;54.504;9.588;2023-10-13T05:19:11;100564.31;;;12.41;100.00
8398;BME280;4236;54.504;9.588;2023-10-13T05:21:58;100566.81;;;12.42;100.00
8398;BME280;4236;54.504;9.588;2023-10-13T05:24:40;100563.72;;;12.45;100.00
8398;BME280;4236;54.504;9.588;2023-10-13T05:27:25;100561.81;;;12.46;100.00
8398;BME280;4236;54.504;9.588;2023-10-13T05:30:11;100555.25;;;12.48;100.00
8398;BME280;4236;54.504;9.588;2023-10-13T05:32:57;100554.81;;;12.51;100.00
8398;BME280;4236;54.504;9.588;2023-10-13T05:35:42;100550.91;;;12.54;100.00
8398;BME280;4236;54.504;9.588;2023-10-13T05:38:31;100531.13;;;12.55;100.00
8398;BME280;4236;54.504;9.588;2023-10-13T05:41:16;100522.66;;;12.58;100.00
8398;BME280;4236;54.504;9.588;2023-10-13T05:44:02;100523.06;;;12.61;100.00
8398;BME280;4236;54.504;9.588;2023-10-13T05:46:47;100522.88;;;12.63;100.00
8398;BME280;4236;54.504;9.588;2023-10-13T05:49:49;100517.88;;;12.66;100.00
8398;BME280;4236;54.504;9.588;2023-10-13T05:52:17;100515.84;;;12.68;100.00
8398;BME280;4236;54.504;9.588;2023-10-13T05:55:03;100518.91;;;12.72;100.00
8398;BME280;4236;54.504;9.588;2023-10-13T05:57:49;100519.50;;;12.74;100.00
8398;BME280;4236;54.504;9.588;2023-10-13T06:00:38;100515.13;;;12.80;100.00
8398;BME280;4236;54.504;9.588;2023-10-13T06:03:24;100521.69;;;12.84;100.00
8398;BME280;4236;54.504;9.588;2023-10-13T06:06:09;100518.38;;;12.88;100.00
8398;BME280;4236;54.504;9.588;2023-10-13T06:08:55;100508.88;;;12.92;100.00
8398;BME280;4236;54.504;9.588;2023-10-13T06:11:41;100512.53;;;12.98;100.00
8398;BME280;4236;54.504;9.588;2023-10-13T06:14:26;100507.97;;;13.05;100.00
8398;BME280;4236;54.504;9.588;2023-10-13T06:17:12;100498.25;;;13.10;100.00
8398;BME280;4236;54.504;9.588;2023-10-13T06:19:57;100495.53;;;13.17;100.00
8398;BME280;4236;54.504;9.588;2023-10-13T06:22:43;100493.00;;;13.22;100.00
8398;BME280;4236;54.504;9.588;2023-10-13T06:25:31;100496.66;;;13.27;100.00
8398;BME280;4236;54.504;9.588;2023-10-13T06:28:18;100493.09;;;13.34;100.00
8398;BME280;4236;54.504;9.588;2023-10-13T06:31:04;100486.28;;;13.38;100.00
8398;BME280;4236;54.504;9.588;2023-10-13T06:33:33;100485.59;;;13.42;100.00
8398;BME280;4236;54.504;9.588;2023-10-13T06:36:01;100477.94;;;13.46;100.00
8398;BME280;4236;54.504;9.588;2023-10-13T06:38:29;100474.59;;;13.50;100.00
8398;BME280;4236;54.504;9.588;2023-10-13T06:41:02;100470.44;;;13.54;100.00
8398;BME280;4236;54.504;9.588;2023-10-13T06:43:33;100465.47;;;13.58;100.00
8398;BME280;4236;54.504;9.588;2023-10-13T06:46:06;100468.50;;;13.61;100.00
8398;BME280;4236;54.504;9.588;2023-10-13T06:48:34;100452.81;;;13.65;100.00
8398;BME280;4236;54.504;9.588;2023-10-13T06:51:02;100459.13;;;13.70;100.00
8398;BME280;4236;54.504;9.588;2023-10-13T06:53:44;100438.66;;;13.76;100.00
8398;BME280;4236;54.504;9.588;2023-10-13T06:56:14;100445.19;;;13.80;100.00
8398;BME280;4236;54.504;9.588;2023-10-13T06:58:45;100440.00;;;13.85;100.00
8398;BME280;4236;54.504;9.588;2023-10-13T07:01:13;100432.34;;;13.89;100.00
8398;BME280;4236;54.504;9.588;2023-10-13T07:03:42;100423.59;;;13.93;100.00
8398;BME280;4236;54.504;9.588;2023-10-13T07:06:10;100414.44;;;14.01;100.00
8398;BME280;4236;54.504;9.588;2023-10-13T07:08:44;100410.03;;;14.06;100.00
8398;BME280;4236;54.504;9.588;2023-10-13T07:11:19;100412.84;;;14.11;100.00
8398;BME280;4236;54.504;9.588;2023-10-13T07:13:50;100405.28;;;14.20;100.00
8398;BME280;4236;54.504;9.588;2023-10-13T07:16:18;100403.34;;;14.27;100.00
8398;BME280;4236;54.504;9.588;2023-10-13T07:18:55;100395.22;;;14.33;100.00
8398;BME280;4236;54.504;9.588;2023-10-13T07:21:31;100388.69;;;14.41;100.00
8398;BME280;4236;54.504;9.588;2023-10-13T07:23:59;100378.69;;;14.48;100.00
8398;BME280;4236;54.504;9.588;2023-10-13T07:26:35;100362.47;;;14.55;100.00
8398;BME280;4236;54.504;9.588;2023-10-13T07:29:11;100373.34;;;14.60;100.00
8398;BME280;4236;54.504;9.588;2023-10-13T07:31:39;100368.09;;;14.65;100.00
8398;BME280;4236;54.504;9.588;2023-10-13T07:34:07;100358.28;;;14.70;100.00
8398;BME280;4236;54.504;9.588;2023-10-13T07:36:47;100351.41;;;14.74;100.00
8398;BME280;4236;54.504;9.588;2023-10-13T07:39:16;100348.03;;;14.79;100.00
8398;BME280;4236;54.504;9.588;2023-10-13T07:41:51;100343.00;;;14.82;100.00
8398;BME280;4236;54.504;9.588;2023-10-13T07:44:33;100339.75;;;14.92;100.00
8398;BME280;4236;54.504;9.588;2023-10-13T07:47:02;100330.50;;;15.00;100.00
8398;BME280;4236;54.504;9.588;2023-10-13T07:49:37;100319.88;;;15.05;100.00
8398;BME280;4236;54.504;9.588;2023-10-13T07:52:07;100321.63;;;15.11;100.00
8398;BME280;4236;54.504;9.588;2023-10-13T07:54:54;100304.22;;;15.13;100.00
8398;BME280;4236;54.504;9.588;2023-10-13T07:57:38;100310.25;;;15.20;100.00
8398;BME280;4236;54.504;9.588;2023-10-13T08:00:21;100306.31;;;15.23;100.00
8398;BME280;4236;54.504;9.588;2023-10-13T08:03:14;100293.31;;;15.31;100.00
8398;BME280;4236;54.504;9.588;2023-10-13T08:06:10;100293.19;;;15.38;100.00
8398;BME280;4236;54.504;9.588;2023-10-13T08:08:48;100287.44;;;15.46;100.00
8398;BME280;4236;54.504;9.588;2023-10-13T08:11:21;100281.69;;;15.54;100.00
8398;BME280;4236;54.504;9.588;2023-10-13T08:14:01;100282.84;;;15.58;100.00
8398;BME280;4236;54.504;9.588;2023-10-13T08:16:57;100272.75;;;15.65;100.00
8398;BME280;4236;54.504;9.588;2023-10-13T08:19:28;100273.69;;;15.71;100.00
8398;BME280;4236;54.504;9.588;2023-10-13T08:22:06;100269.78;;;15.78;100.00
8398;BME280;4236;54.504;9.588;2023-10-13T08:24:51;100275.50;;;15.82;100.00
8398;BME280;4236;54.504;9.588;2023-10-13T08:27:39;100264.00;;;15.86;100.00
8398;BME280;4236;54.504;9.588;2023-10-13T08:30:16;100247.50;;;15.94;100.00
8398;BME280;4236;54.504;9.588;2023-10-13T08:32:54;100236.81;;;15.99;100.00
8398;BME280;4236;54.504;9.588;2023-10-13T08:35:24;100233.16;;;16.05;100.00
8398;BME280;4236;54.504;9.588;2023-10-13T08:38:02;100229.16;;;16.08;100.00
8398;BME280;4236;54.504;9.588;2023-10-13T08:40:58;100226.78;;;16.12;100.00
8398;BME280;4236;54.504;9.588;2023-10-13T08:43:44;100230.63;;;16.16;100.00
8398;BME280;4236;54.504;9.588;2023-10-13T08:46:18;100227.94;;;16.16;100.00
8398;BME280;4236;54.504;9.588;2023-10-13T08:48:59;100220.91;;;16.15;100.00
8398;BME280;4236;54.504;9.588;2023-10-13T08:51:43;100216.59;;;16.14;100.00
8398;BME280;4236;54.504;9.588;2023-10-13T08:54:13;100203.97;;;16.14;100.00
8398;BME280;4236;54.504;9.588;2023-10-13T08:56:55;100191.41;;;16.20;100.00
8398;BME280;4236;54.504;9.588;2023-10-13T08:59:23;100187.72;;;16.26;100.00
8398;BME280;4236;54.504;9.588;2023-10-13T09:01:59;100193.66;;;16.28;100.00
8398;BME280;4236;54.504;9.588;2023-10-13T09:04:44;100182.72;;;16.34;100.00
8398;BME280;4236;54.504;9.588;2023-10-13T09:07:13;100180.13;;;16.39;100.00
8398;BME280;4236;54.504;9.588;2023-10-13T09:09:49;100173.09;;;16.38;100.00
8398;BME280;4236;54.504;9.588;2023-10-13T09:12:27;100152.94;;;16.41;100.00
8398;BME280;4236;54.504;9.588;2023-10-13T09:15:07;100154.00;;;16.40;100.00
8398;BME280;4236;54.504;9.588;2023-10-13T09:17:46;100152.63;;;16.37;100.00
8398;BME280;4236;54.504;9.588;2023-10-13T09:20:29;100139.44;;;16.36;100.00
8398;BME280;4236;54.504;9.588;2023-10-13T09:23:10;100132.19;;;16.36;100.00
8398;BME280;4236;54.504;9.588;2023-10-13T09:25:40;100122.97;;;16.32;100.00
8398;BME280;4236;54.504;9.588;2023-10-13T09:28:20;100115.13;;;16.31;100.00
8398;BME280;4236;54.504;9.588;2023-10-13T09:30:50;100114.03;;;16.27;100.00
8398;BME280;4236;54.504;9.588;2023-10-13T09:33:20;100111.84;;;16.24;100.00
8398;BME280;4236;54.504;9.588;2023-10-13T09:35:57;100102.69;;;16.25;100.00
8398;BME280;4236;54.504;9.588;2023-10-13T09:38:27;100112.94;;;16.28;100.00
8398;BME280;4236;54.504;9.588;2023-10-13T09:40:54;100105.94;;;16.27;100.00
8398;BME280;4236;54.504;9.588;2023-10-13T09:43:24;100111.06;;;16.28;100.00
8398;BME280;4236;54.504;9.588;2023-10-13T09:45:58;100093.06;;;16.29;100.00
8398;BME280;4236;54.504;9.588;2023-10-13T09:48:31;100094.19;;;16.33;100.00
8398;BME280;4236;54.504;9.588;2023-10-13T09:51:02;100089.38;;;16.35;100.00
8398;BME280;4236;54.504;9.588;2023-10-13T09:53:31;100079.78;;;16.44;100.00
8398;BME280;4236;54.504;9.588;2023-10-13T09:56:03;100072.34;;;16.51;100.00
8398;BME280;4236;54.504;9.588;2023-10-13T09:58:54;100059.53;;;16.58;100.00
8398;BME280;4236;54.504;9.588;2023-10-13T10:01:24;100062.31;;;16.63;100.00
8398;BME280;4236;54.504;9.588;2023-10-13T10:04:07;100058.47;;;16.59;100.00
8398;BME280;4236;54.504;9.588;2023-10-13T10:06:37;100073.56;;;16.60;100.00
8398;BME280;4236;54.504;9.588;2023-10-13T10:09:11;100071.38;;;16.57;100.00
8398;BME280;4236;54.504;9.588;2023-10-13T10:12:01;100056.75;;;16.53;100.00
8398;BME280;4236;54.504;9.588;2023-10-13T10:14:56;100049.75;;;16.52;100.00
8398;BME280;4236;54.504;9.588;2023-10-13T10:17:27;100049.50;;;16.53;100.00
8398;BME280;4236;54.504;9.588;2023-10-13T10:19:56;100055.94;;;16.52;100.00
8398;BME280;4236;54.504;9.588;2023-10-13T10:22:29;100034.25;;;16.59;100.00
8398;BME280;4236;54.504;9.588;2023-10-13T10:25:00;100030.72;;;16.58;100.00
8398;BME280;4236;54.504;9.588;2023-10-13T10:27:31;100022.44;;;16.60;100.00
8398;BME280;4236;54.504;9.588;2023-10-13T10:29:59;100009.25;;;16.64;100.00
8398;BME280;4236;54.504;9.588;2023-10-13T10:32:34;100026.72;;;16.61;100.00
8398;BME280;4236;54.504;9.588;2023-10-13T10:35:04;100005.69;;;16.58;100.00
8398;BME280;4236;54.504;9.588;2023-10-13T10:37:42;99995.88;;;16.47;100.00
8398;BME280;4236;54.504;9.588;2023-10-13T10:40:15;99974.53;;;16.40;100.00
8398;BME280;4236;54.504;9.588;2023-10-13T10:43:00;99981.28;;;16.43;100.00
8398;BME280;4236;54.504;9.588;2023-10-13T10:45:47;99957.31;;;16.41;100.00
8398;BME280;4236;54.504;9.588;2023-10-13T10:48:17;99952.25;;;16.45;100.00
8398;BME280;4236;54.504;9.588;2023-10-13T10:50:51;99944.78;;;16.52;100.00
8398;BME280;4236;54.504;9.588;2023-10-13T10:53:22;99937.34;;;16.59;100.00
8398;BME280;4236;54.504;9.588;2023-10-13T10:56:06;99928.25;;;16.65;100.00
8398;BME280;4236;54.504;9.588;2023-10-13T10:58:43;99921.84;;;16.71;100.00
8398;BME280;4236;54.504;9.588;2023-10-13T11:01:11;99914.41;;;16.83;100.00
8398;BME280;4236;54.504;9.588;2023-10-13T11:03:53;99908.81;;;16.90;100.00
8398;BME280;4236;54.504;9.588;2023-10-13T11:06:24;99906.69;;;16.97;100.00
8398;BME280;4236;54.504;9.588;2023-10-13T11:09:05;99899.59;;;16.86;100.00
8398;BME280;4236;54.504;9.588;2023-10-13T11:11:45;99889.63;;;16.81;100.00
8398;BME280;4236;54.504;9.588;2023-10-13T11:14:22;99888.81;;;16.81;100.00
8398;BME280;4236;54.504;9.588;2023-10-13T11:16:51;99877.97;;;16.76;100.00
8398;BME280;4236;54.504;9.588;2023-10-13T11:19:21;99868.03;;;16.76;100.00
8398;BME280;4236;54.504;9.588;2023-10-13T11:21:54;99848.94;;;16.78;100.00
8398;BME280;4236;54.504;9.588;2023-10-13T11:24:24;99823.59;;;16.74;100.00
8398;BME280;4236;54.504;9.588;2023-10-13T11:26:51;99867.97;;;16.66;100.00
8398;BME280;4236;54.504;9.588;2023-10-13T11:29:31;99861.16;;;16.58;100.00
8398;BME280;4236;54.504;9.588;2023-10-13T11:32:00;99830.47;;;16.54;100.00
8398;BME280;4236;54.504;9.588;2023-10-13T11:34:29;99833.34;;;16.48;100.00
8398;BME280;4236;54.504;9.588;2023-10-13T11:37:06;99847.31;;;16.45;100.00
8398;BME280;4236;54.504;9.588;2023-10-13T11:39:49;99827.69;;;16.49;100.00
8398;BME280;4236;54.504;9.588;2023-10-13T11:42:18;99819.88;;;16.48;100.00
8398;BME280;4236;54.504;9.588;2023-10-13T11:44:47;99820.94;;;16.47;100.00
8398;BME280;4236;54.504;9.588;2023-10-13T11:47:28;99811.66;;;16.59;100.00
8398;BME280;4236;54.504;9.588;2023-10-13T11:50:14;99792.59;;;16.66;100.00
8398;BME280;4236;54.504;9.588;2023-10-13T11:52:58;99787.78;;;16.73;100.00
8398;BME280;4236;54.504;9.588;2023-10-13T11:55:30;99782.19;;;16.85;100.00
8398;BME280;4236;54.504;9.588;2023-10-13T11:57:58;99774.09;;;16.85;100.00
8398;BME280;4236;54.504;9.588;2023-10-13T12:00:26;99764.22;;;16.95;100.00
8398;BME280;4236;54.504;9.588;2023-10-13T12:03:14;99762.34;;;17.01;100.00
8398;BME280;4236;54.504;9.588;2023-10-13T12:05:59;99769.63;;;17.05;100.00
8398;BME280;4236;54.504;9.588;2023-10-13T12:08:45;99769.94;;;17.09;100.00
8398;BME280;4236;54.504;9.588;2023-10-13T12:11:19;99754.66;;;17.25;100.00
8398;BME280;4236;54.504;9.588;2023-10-13T12:13:59;99734.25;;;17.44;100.00
8398;BME280;4236;54.504;9.588;2023-10-13T12:16:37;99724.84;;;17.56;100.00
8398;BME280;4236;54.504;9.588;2023-10-13T12:19:06;99726.22;;;17.59;100.00
8398;BME280;4236;54.504;9.588;2023-10-13T12:21:37;99738.09;;;17.68;100.00
8398;BME280;4236;54.504;9.588;2023-10-13T12:24:05;99708.44;;;17.73;100.00
8398;BME280;4236;54.504;9.588;2023-10-13T12:26:39;99727.59;;;17.77;100.00
8398;BME280;4236;54.504;9.588;2023-10-13T12:29:09;99732.16;;;17.86;100.00
8398;BME280;4236;54.504;9.588;2023-10-13T12:31:48;99721.16;;;17.98;100.00
8398;BME280;4236;54.504;9.588;2023-10-13T12:34:32;99696.56;;;18.04;100.00
8398;BME280;4236;54.504;9.588;2023-10-13T12:37:23;99695.50;;;18.10;100.00
8398;BME280;4236;54.504;9.588;2023-10-13T12:40:09;99684.94;;;18.19;100.00
8398;BME280;4236;54.504;9.588;2023-10-13T12:42:56;99693.31;;;18.22;100.00
8398;BME280;4236;54.504;9.588;2023-10-13T12:45:43;99685.78;;;18.24;100.00
8398;BME280;4236;54.504;9.588;2023-10-13T12:48:37;99667.16;;;18.23;100.00
8398;BME280;4236;54.504;9.588;2023-10-13T12:51:30;99678.47;;;18.30;100.00
8398;BME280;4236;54.504;9.588;2023-10-13T12:54:18;99674.13;;;18.34;100.00
8398;BME280;4236;54.504;9.588;2023-10-13T12:56:54;99679.25;;;18.46;100.00
8398;BME280;4236;54.504;9.588;2023-10-13T12:59:25;99671.13;;;18.46;100.00
8398;BME280;4236;54.504;9.588;2023-10-13T13:01:54;99667.94;;;18.49;100.00
8398;BME280;4236;54.504;9.588;2023-10-13T13:04:22;99666.31;;;18.53;100.00
8398;BME280;4236;54.504;9.588;2023-10-13T13:06:52;99657.91;;;18.59;100.00
8398;BME280;4236;54.504;9.588;2023-10-13T13:09:20;99647.66;;;18.66;100.00
8398;BME280;4236;54.504;9.588;2023-10-13T13:11:52;99652.19;;;18.71;100.00
8398;BME280;4236;54.504;9.588;2023-10-13T13:14:25;99650.56;;;18.80;100.00
8398;BME280;4236;54.504;9.588;2023-10-13T13:16:55;99660.81;;;18.83;100.00
8398;BME280;4236;54.504;9.588;2023-10-13T13:19:32;99637.56;;;18.87;100.00
8398;BME280;4236;54.504;9.588;2023-10-13T13:22:02;99628.09;;;18.90;100.00
8398;BME280;4236;54.504;9.588;2023-10-13T13:24:31;99643.19;;;18.91;100.00
8398;BME280;4236;54.504;9.588;2023-10-13T13:26:58;99635.91;;;18.91;100.00
8398;BME280;4236;54.504;9.588;2023-10-13T13:29:30;99639.94;;;18.94;100.00
8398;BME280;4236;54.504;9.588;2023-10-13T13:31:58;99639.38;;;18.97;100.00
8398;BME280;4236;54.504;9.588;2023-10-13T13:34:27;99622.91;;;18.98;100.00
8398;BME280;4236;54.504;9.588;2023-10-13T13:36:56;99622.63;;;19.00;100.00
8398;BME280;4236;54.504;9.588;2023-10-13T13:39:27;99628.84;;;19.00;100.00
8398;BME280;4236;54.504;9.588;2023-10-13T13:41:56;99619.13;;;18.99;100.00
8398;BME280;4236;54.504;9.588;2023-10-13T13:44:24;99608.28;;;19.04;100.00
8398;BME280;4236;54.504;9.588;2023-10-13T13:46:59;99602.59;;;19.06;100.00